createdAt,value
2022-12-31T00:01:34.104Z,0.80
2022-12-31T00:03:42.611Z,0.63
2022-12-31T00:05:50.379Z,0.60
2022-12-31T00:07:58.190Z,0.68
2022-12-31T00:10:06.843Z,0.90
2022-12-31T00:12:17.195Z,0.70
2022-12-31T00:14:24.938Z,1.52
2022-12-31T00:16:36.599Z,1.50
2022-12-31T00:18:47.284Z,0.65
2022-12-31T00:20:55.227Z,0.52
2022-12-31T00:23:03.394Z,0.80
2022-12-31T00:25:12.559Z,1.30
2022-12-31T00:27:22.981Z,0.55
2022-12-31T00:29:30.721Z,1.02
2022-12-31T00:31:40.415Z,0.68
2022-12-31T00:33:48.556Z,0.60
2022-12-31T00:35:56.345Z,1.35
2022-12-31T00:38:04.038Z,0.75
2022-12-31T00:40:14.664Z,0.60
2022-12-31T00:42:25.225Z,0.85
2022-12-31T00:44:33.967Z,1.00
2022-12-31T00:48:48.890Z,0.85
2022-12-31T00:50:57.740Z,0.65
2022-12-31T00:53:05.510Z,1.08
2022-12-31T00:55:13.182Z,0.85
2022-12-31T00:57:20.977Z,0.50
2022-12-31T00:59:31.304Z,2.08
2022-12-31T01:01:40.966Z,0.85
2022-12-31T01:03:50.511Z,5.47
2022-12-31T01:06:01.703Z,0.70
2022-12-31T01:08:09.523Z,1.10
2022-12-31T01:10:38.076Z,0.60
2022-12-31T01:12:45.869Z,0.77
2022-12-31T01:14:56.262Z,0.73
2022-12-31T01:17:03.957Z,0.82
2022-12-31T01:19:15.597Z,0.85
2022-12-31T01:21:24.745Z,0.80
2022-12-31T01:23:32.676Z,1.20
2022-12-31T01:25:41.954Z,0.82
2022-12-31T01:27:49.680Z,0.90
2022-12-31T01:29:59.985Z,0.90
2022-12-31T01:32:08.466Z,1.33
2022-12-31T01:34:16.264Z,3.42
2022-12-31T01:36:27.019Z,0.80
2022-12-31T01:38:35.854Z,1.13
2022-12-31T01:40:44.219Z,0.80
2022-12-31T01:42:57.270Z,0.77
2022-12-31T01:45:13.831Z,0.80
2022-12-31T01:47:32.067Z,1.00
2022-12-31T01:49:45.073Z,1.05
2022-12-31T01:51:56.332Z,1.17
2022-12-31T01:54:06.453Z,1.00
2022-12-31T01:56:14.278Z,0.90
2022-12-31T01:58:25.850Z,0.80
2022-12-31T02:00:36.331Z,1.00
2022-12-31T02:02:44.254Z,1.17
2022-12-31T02:04:53.908Z,1.27
2022-12-31T02:07:03.930Z,0.82
2022-12-31T02:09:12.395Z,1.48
2022-12-31T02:11:25.083Z,1.40
2022-12-31T02:13:32.839Z,1.00
2022-12-31T02:15:53.718Z,1.30
2022-12-31T02:18:09.078Z,0.90
2022-12-31T02:20:38.626Z,0.90
2022-12-31T02:23:04.412Z,1.90
2022-12-31T02:25:39.577Z,1.20
2022-12-31T02:27:56.305Z,1.98
2022-12-31T02:30:20.017Z,0.82
2022-12-31T02:32:34.771Z,1.20
2022-12-31T02:34:50.586Z,2.30
2022-12-31T02:37:01.913Z,1.20
2022-12-31T02:39:12.139Z,1.00
2022-12-31T02:41:34.049Z,1.00
2022-12-31T02:43:49.069Z,1.48
2022-12-31T02:46:08.502Z,0.80
2022-12-31T02:48:29.790Z,0.82
2022-12-31T02:50:55.787Z,1.35
2022-12-31T02:53:17.473Z,0.85
2022-12-31T02:55:34.952Z,0.90
2022-12-31T02:57:49.830Z,0.80
2022-12-31T03:00:14.759Z,0.98
2022-12-31T03:02:24.743Z,0.80
2022-12-31T03:04:36.303Z,0.90
2022-12-31T03:06:45.854Z,1.13
2022-12-31T03:09:07.826Z,1.27
2022-12-31T03:11:35.619Z,0.90
2022-12-31T03:13:40.783Z,0.80
2022-12-31T03:15:48.500Z,1.08
2022-12-31T03:18:04.540Z,1.05
2022-12-31T03:20:25.243Z,1.40
2022-12-31T03:22:31.119Z,0.95
2022-12-31T03:24:51.313Z,1.60
2022-12-31T03:26:59.016Z,0.93
2022-12-31T03:29:06.792Z,1.30
2022-12-31T03:31:14.587Z,1.05
2022-12-31T03:33:25.151Z,1.05
2022-12-31T03:35:35.611Z,1.25
2022-12-31T03:37:43.892Z,1.50
2022-12-31T03:39:51.587Z,0.90
2022-12-31T03:41:59.415Z,1.10
2022-12-31T03:44:07.446Z,1.10
2022-12-31T03:46:15.298Z,1.02
2022-12-31T03:48:26.339Z,1.10
2022-12-31T03:50:34.615Z,0.90
2022-12-31T03:52:42.816Z,1.00
2022-12-31T03:54:50.636Z,1.00
2022-12-31T03:57:00.221Z,0.98
2022-12-31T03:59:08.271Z,0.75
2022-12-31T04:01:16.076Z,0.80
2022-12-31T04:03:26.585Z,1.00
2022-12-31T04:05:34.353Z,0.82
2022-12-31T04:07:42.741Z,2.17
2022-12-31T04:09:50.543Z,2.15
2022-12-31T04:11:58.401Z,0.80
2022-12-31T04:14:06.107Z,0.95
2022-12-31T04:16:14.076Z,1.17
2022-12-31T04:18:21.963Z,0.88
2022-12-31T04:20:32.313Z,1.15
2022-12-31T04:22:40.484Z,1.67
2022-12-31T04:24:48.226Z,1.48
2022-12-31T04:26:55.995Z,1.05
2022-12-31T04:29:03.797Z,0.90
2022-12-31T04:31:11.787Z,1.85
2022-12-31T04:33:19.508Z,1.10
2022-12-31T04:35:27.263Z,0.90
2022-12-31T04:37:37.621Z,0.77
2022-12-31T04:39:45.460Z,1.10
2022-12-31T04:41:53.276Z,0.90
2022-12-31T04:44:02.347Z,0.90
2022-12-31T04:46:10.180Z,1.63
2022-12-31T04:48:18.008Z,1.10
2022-12-31T04:50:25.938Z,1.02
2022-12-31T04:52:37.167Z,1.05
2022-12-31T04:54:52.643Z,0.82
2022-12-31T04:57:00.379Z,1.05
2022-12-31T04:59:09.003Z,0.90
2022-12-31T05:01:17.340Z,1.13
2022-12-31T05:03:28.921Z,1.00
2022-12-31T05:05:42.905Z,1.08
2022-12-31T05:07:50.582Z,1.00
2022-12-31T05:10:00.950Z,1.02
2022-12-31T05:12:09.311Z,0.80
2022-12-31T05:14:17.367Z,1.08
2022-12-31T05:16:25.141Z,1.10
2022-12-31T05:18:33.734Z,0.93
2022-12-31T05:20:41.590Z,0.60
2022-12-31T05:22:49.353Z,1.00
2022-12-31T05:24:57.194Z,1.42
2022-12-31T05:27:07.562Z,0.70
2022-12-31T05:29:15.351Z,1.10
2022-12-31T05:31:23.104Z,1.45
2022-12-31T05:33:30.884Z,1.05
2022-12-31T05:35:38.692Z,1.13
2022-12-31T05:37:47.071Z,1.00
2022-12-31T05:39:54.824Z,0.82
2022-12-31T05:42:02.582Z,0.90
2022-12-31T05:44:13.467Z,1.77
2022-12-31T05:46:21.242Z,0.88
2022-12-31T05:48:29.041Z,0.90
2022-12-31T05:50:36.855Z,1.00
2022-12-31T05:52:47.647Z,1.08
2022-12-31T05:54:55.645Z,0.90
2022-12-31T05:57:03.857Z,1.25
2022-12-31T05:59:14.288Z,1.33
2022-12-31T06:01:22.118Z,0.90
2022-12-31T06:03:29.955Z,0.90
2022-12-31T06:05:37.750Z,1.30
2022-12-31T06:07:45.529Z,1.20
2022-12-31T06:09:53.293Z,1.27
2022-12-31T06:12:01.117Z,1.08
2022-12-31T06:14:08.947Z,1.90
2022-12-31T06:16:19.273Z,2.15
2022-12-31T06:18:27.153Z,1.20
2022-12-31T06:20:34.909Z,1.20
2022-12-31T06:22:42.726Z,1.30
2022-12-31T06:24:50.531Z,1.20
2022-12-31T06:26:58.223Z,1.40
2022-12-31T06:29:06.096Z,1.85
2022-12-31T06:31:15.964Z,1.08
2022-12-31T06:33:26.331Z,0.90
2022-12-31T06:35:34.105Z,1.10
2022-12-31T06:37:41.925Z,1.00
2022-12-31T06:39:49.707Z,2.80
2022-12-31T06:41:57.650Z,3.47
2022-12-31T06:44:05.371Z,1.45
2022-12-31T06:46:16.194Z,1.90
2022-12-31T06:48:26.595Z,1.40
2022-12-31T06:50:34.429Z,1.85
2022-12-31T06:52:42.150Z,1.48
2022-12-31T06:54:51.250Z,1.20
2022-12-31T06:56:59.755Z,1.02
2022-12-31T06:59:08.257Z,1.10
2022-12-31T07:01:33.402Z,1.05
2022-12-31T07:03:54.177Z,1.00
2022-12-31T07:06:12.084Z,1.42
2022-12-31T07:08:32.938Z,1.33
2022-12-31T07:10:51.945Z,1.00
2022-12-31T07:13:13.091Z,1.00
2022-12-31T07:15:37.065Z,1.85
2022-12-31T07:17:55.978Z,0.93
2022-12-31T07:20:10.073Z,1.35
2022-12-31T07:22:20.743Z,1.75
2022-12-31T07:24:29.673Z,3.90
2022-12-31T07:27:03.369Z,1.13
2022-12-31T07:29:19.157Z,1.20
2022-12-31T07:31:37.514Z,0.88
2022-12-31T07:33:54.452Z,1.20
2022-12-31T07:36:20.011Z,1.50
2022-12-31T07:38:37.558Z,1.13
2022-12-31T07:40:57.947Z,0.90
2022-12-31T07:43:13.317Z,0.80
2022-12-31T07:45:27.392Z,1.50
2022-12-31T07:47:35.811Z,1.80
2022-12-31T07:49:45.861Z,1.70
2022-12-31T07:51:57.401Z,1.23
2022-12-31T07:54:10.177Z,2.35
2022-12-31T07:56:21.339Z,1.75
2022-12-31T07:58:42.901Z,1.45
2022-12-31T08:00:51.546Z,3.90
2022-12-31T08:03:19.729Z,1.42
2022-12-31T08:05:32.813Z,1.20
2022-12-31T08:07:52.396Z,1.00
2022-12-31T08:10:12.556Z,1.30
2022-12-31T08:12:24.569Z,1.13
2022-12-31T08:14:33.464Z,1.30
2022-12-31T08:16:42.007Z,1.63
2022-12-31T08:18:50.454Z,1.23
2022-12-31T08:21:11.323Z,4.20
2022-12-31T08:23:31.270Z,1.38
2022-12-31T08:25:50.571Z,1.00
2022-12-31T08:28:09.848Z,1.08
2022-12-31T08:30:19.171Z,1.20
2022-12-31T08:32:32.833Z,1.25
2022-12-31T08:34:50.737Z,1.77
2022-12-31T08:37:06.020Z,1.15
2022-12-31T08:39:28.397Z,1.05
2022-12-31T08:41:48.691Z,1.20
2022-12-31T08:44:08.929Z,1.10
2022-12-31T08:46:26.087Z,0.82
2022-12-31T08:48:40.414Z,0.70
2022-12-31T08:50:48.786Z,1.00
2022-12-31T08:52:57.808Z,1.83
2022-12-31T08:55:09.287Z,1.30
2022-12-31T08:57:26.910Z,1.10
2022-12-31T08:59:45.209Z,1.67
2022-12-31T09:02:31.496Z,1.10
2022-12-31T09:04:56.006Z,1.30
2022-12-31T09:07:05.882Z,2.15
2022-12-31T09:09:22.897Z,1.40
2022-12-31T09:11:43.171Z,1.50
2022-12-31T09:14:16.140Z,1.35
2022-12-31T09:16:33.053Z,1.27
2022-12-31T09:18:44.369Z,1.40
2022-12-31T09:20:52.641Z,1.08
2022-12-31T09:23:02.608Z,1.40
2022-12-31T09:25:16.602Z,1.30
2022-12-31T09:27:33.260Z,1.58
2022-12-31T09:29:51.680Z,1.20
2022-12-31T09:32:12.109Z,0.90
2022-12-31T09:34:27.132Z,1.30
2022-12-31T09:36:39.379Z,0.90
2022-12-31T09:38:54.810Z,0.82
2022-12-31T09:41:16.378Z,1.08
2022-12-31T09:43:57.352Z,1.10
2022-12-31T09:46:41.306Z,1.10
2022-12-31T09:49:18.981Z,1.17
2022-12-31T09:51:33.389Z,2.67
2022-12-31T09:54:06.987Z,1.40
2022-12-31T09:56:22.532Z,0.77
2022-12-31T09:58:46.934Z,2.47
2022-12-31T10:00:59.121Z,3.60
2022-12-31T10:03:33.381Z,1.00
2022-12-31T10:05:57.473Z,1.37
2022-12-31T10:08:17.462Z,1.33
2022-12-31T10:10:33.128Z,0.80
2022-12-31T10:13:09.025Z,1.95
2022-12-31T10:15:53.175Z,0.98
2022-12-31T10:18:10.044Z,0.85
2022-12-31T10:20:40.103Z,1.08
2022-12-31T10:23:23.975Z,0.60
2022-12-31T10:25:47.065Z,1.58
2022-12-31T10:28:03.083Z,1.00
2022-12-31T10:30:18.278Z,0.82
2022-12-31T10:32:40.438Z,0.88
2022-12-31T10:34:58.570Z,0.63
2022-12-31T10:37:14.481Z,0.85
2022-12-31T10:39:34.262Z,1.08
2022-12-31T10:42:03.591Z,1.08
2022-12-31T10:44:37.810Z,1.98
2022-12-31T10:47:14.887Z,0.95
2022-12-31T10:49:52.352Z,0.90
2022-12-31T10:52:30.008Z,0.77
2022-12-31T10:54:59.651Z,0.80
2022-12-31T10:57:42.562Z,1.52
2022-12-31T11:00:16.731Z,1.17
2022-12-31T11:02:52.781Z,1.25
2022-12-31T11:05:27.265Z,1.30
2022-12-31T11:08:09.668Z,0.90
2022-12-31T11:10:39.743Z,0.93
2022-12-31T11:13:10.332Z,1.25
2022-12-31T11:15:34.364Z,0.70
2022-12-31T11:17:53.333Z,1.40
2022-12-31T11:20:15.811Z,0.80
2022-12-31T11:22:40.149Z,0.80
2022-12-31T11:25:16.192Z,0.93
2022-12-31T11:27:37.685Z,0.82
2022-12-31T11:29:55.977Z,0.70
2022-12-31T11:32:12.159Z,1.52
2022-12-31T11:34:56.511Z,0.85
2022-12-31T11:37:23.185Z,1.40
2022-12-31T11:39:50.171Z,0.82
2022-12-31T11:42:14.738Z,1.00
2022-12-31T11:44:35.181Z,1.00
2022-12-31T11:47:00.449Z,1.20
2022-12-31T11:49:23.820Z,1.20
2022-12-31T11:51:53.437Z,2.15
2022-12-31T11:54:36.932Z,1.88
2022-12-31T11:56:50.080Z,1.10
2022-12-31T11:59:06.170Z,0.80
2022-12-31T12:01:23.189Z,2.80
2022-12-31T12:03:38.766Z,1.00
2022-12-31T12:05:46.637Z,1.20
2022-12-31T12:07:55.931Z,0.93
2022-12-31T12:10:07.316Z,0.95
2022-12-31T12:12:16.559Z,2.35
2022-12-31T12:14:37.387Z,0.80
2022-12-31T12:16:48.370Z,0.98
2022-12-31T12:19:06.418Z,1.50
2022-12-31T12:21:18.790Z,1.50
2022-12-31T12:23:28.506Z,1.13
2022-12-31T12:25:41.677Z,0.80
2022-12-31T12:27:49.834Z,1.30
2022-12-31T12:30:00.333Z,1.20
2022-12-31T12:32:10.729Z,1.05
2022-12-31T12:34:26.169Z,0.80
2022-12-31T12:36:34.987Z,0.85
2022-12-31T12:38:43.091Z,0.93
2022-12-31T12:40:59.827Z,1.58
2022-12-31T12:43:07.588Z,1.13
2022-12-31T12:45:22.593Z,0.95
2022-12-31T12:47:31.529Z,0.90
2022-12-31T12:49:45.506Z,0.90
2022-12-31T12:52:09.343Z,0.88
2022-12-31T12:54:33.535Z,0.80
2022-12-31T12:56:52.078Z,0.80
2022-12-31T12:59:25.582Z,1.30
2022-12-31T13:01:43.122Z,1.33
2022-12-31T13:04:38.152Z,1.13
2022-12-31T13:07:01.416Z,1.50
2022-12-31T13:09:24.873Z,1.20
2022-12-31T13:11:42.136Z,0.90
2022-12-31T13:13:57.152Z,0.95
2022-12-31T13:16:11.864Z,1.17
2022-12-31T13:18:34.069Z,2.55
2022-12-31T13:20:47.949Z,1.13
2022-12-31T13:23:05.921Z,3.35
2022-12-31T13:25:27.006Z,1.40
2022-12-31T13:27:38.168Z,0.90
2022-12-31T13:29:48.907Z,1.23
2022-12-31T13:31:58.865Z,1.77
2022-12-31T13:34:17.019Z,0.60
2022-12-31T13:36:28.030Z,0.88
2022-12-31T13:38:39.787Z,1.20
2022-12-31T13:40:52.572Z,1.55
2022-12-31T13:43:05.102Z,1.50
2022-12-31T13:45:17.813Z,2.80
2022-12-31T13:47:36.077Z,0.90
2022-12-31T13:49:58.012Z,1.10
2022-12-31T13:52:16.885Z,1.25
2022-12-31T13:54:35.432Z,1.40
2022-12-31T13:56:46.133Z,1.20
2022-12-31T13:58:59.773Z,1.70
2022-12-31T14:01:14.949Z,1.52
2022-12-31T14:03:28.384Z,1.55
2022-12-31T14:05:45.673Z,1.35
2022-12-31T14:07:56.386Z,1.42
2022-12-31T14:10:04.219Z,1.42
2022-12-31T14:12:28.530Z,1.90
2022-12-31T14:14:50.142Z,1.52
2022-12-31T14:17:05.202Z,1.20
2022-12-31T14:19:28.972Z,2.65
2022-12-31T14:21:50.007Z,2.40
2022-12-31T14:24:06.477Z,3.55
2022-12-31T14:26:26.099Z,3.05
2022-12-31T14:28:46.475Z,1.73
2022-12-31T14:30:59.801Z,5.28
2022-12-31T14:33:27.290Z,6.03
2022-12-31T14:35:58.683Z,2.70
2022-12-31T14:38:25.774Z,4.00
2022-12-31T14:40:53.229Z,2.40
2022-12-31T14:43:13.036Z,2.10
2022-12-31T14:45:30.408Z,2.67
2022-12-31T14:47:52.457Z,1.90
2022-12-31T14:50:07.774Z,1.65
2022-12-31T14:52:28.330Z,2.40
2022-12-31T14:54:40.856Z,1.65
2022-12-31T14:56:48.867Z,1.48
2022-12-31T14:58:58.931Z,2.15
2022-12-31T15:01:26.116Z,1.50
2022-12-31T15:03:45.007Z,5.88
2022-12-31T15:06:05.292Z,2.55
2022-12-31T15:08:29.569Z,2.08
2022-12-31T15:10:50.385Z,1.50
2022-12-31T15:13:06.157Z,1.55
2022-12-31T15:15:33.331Z,1.10
2022-12-31T15:17:53.908Z,1.70
2022-12-31T15:20:22.478Z,4.00
2022-12-31T15:22:40.353Z,1.60
2022-12-31T15:24:49.829Z,1.52
2022-12-31T15:27:02.540Z,2.00
2022-12-31T15:29:21.825Z,2.28
2022-12-31T15:31:30.456Z,3.13
2022-12-31T15:33:42.407Z,2.45
2022-12-31T15:35:53.984Z,2.10
2022-12-31T15:38:03.978Z,2.20
2022-12-31T15:40:25.106Z,2.22
2022-12-31T15:42:49.836Z,2.10
2022-12-31T15:45:03.633Z,2.50
2022-12-31T15:47:20.534Z,2.63
2022-12-31T15:49:33.213Z,4.97
2022-12-31T15:51:48.015Z,2.60
2022-12-31T15:54:00.897Z,2.20
2022-12-31T15:56:12.269Z,2.10
2022-12-31T15:58:25.563Z,2.65
2022-12-31T16:00:48.600Z,2.15
2022-12-31T16:02:57.516Z,3.20
2022-12-31T16:05:05.548Z,2.28
2022-12-31T16:07:15.161Z,2.55
2022-12-31T16:09:26.577Z,3.08
2022-12-31T16:11:38.355Z,2.70
2022-12-31T16:13:51.575Z,2.83
2022-12-31T16:16:04.712Z,2.58
2022-12-31T16:18:20.621Z,3.03
2022-12-31T16:20:33.707Z,3.03
2022-12-31T16:22:43.139Z,3.13
2022-12-31T16:25:29.048Z,4.15
2022-12-31T16:27:26.742Z,4.85
2022-12-31T16:29:39.339Z,5.35
2022-12-31T16:31:48.732Z,5.40
2022-12-31T16:34:06.235Z,6.60
2022-12-31T16:36:23.807Z,5.18
2022-12-31T16:38:50.459Z,45.97
2022-12-31T16:41:11.557Z,45.78
2022-12-31T16:43:29.087Z,37.85
2022-12-31T16:45:39.876Z,21.17
2022-12-31T16:47:48.248Z,20.77
2022-12-31T16:50:04.168Z,27.45
2022-12-31T16:52:30.758Z,30.73
2022-12-31T16:54:41.700Z,27.63
2022-12-31T16:56:49.823Z,18.85
2022-12-31T16:59:04.034Z,17.58
2022-12-31T17:01:20.021Z,17.25
2022-12-31T17:03:31.104Z,54.15
2022-12-31T17:05:59.084Z,46.53
2022-12-31T17:08:28.112Z,31.40
2022-12-31T17:10:39.154Z,105.55
2022-12-31T17:15:32.267Z,21.60
2022-12-31T17:17:44.217Z,45.60
2022-12-31T17:19:54.479Z,121.03
2022-12-31T17:22:08.722Z,91.80
2022-12-31T17:24:17.260Z,24.63
2022-12-31T17:26:28.445Z,8.45
2022-12-31T17:28:44.709Z,6.90
2022-12-31T17:30:55.914Z,24.08
2022-12-31T17:33:08.183Z,17.70
2022-12-31T17:35:30.707Z,9.95
2022-12-31T17:37:38.521Z,9.32
2022-12-31T17:39:52.132Z,12.60
2022-12-31T17:42:00.956Z,15.55
2022-12-31T17:44:08.866Z,34.28
2022-12-31T17:46:19.607Z,26.35
2022-12-31T17:48:34.531Z,49.03
2022-12-31T17:50:50.593Z,33.50
2022-12-31T17:53:02.421Z,15.20
2022-12-31T17:55:11.732Z,10.23
2022-12-31T17:57:33.534Z,8.85
2022-12-31T17:59:41.383Z,8.05
2022-12-31T18:01:50.062Z,12.10
2022-12-31T18:04:00.645Z,12.35
2022-12-31T18:06:14.527Z,9.57
2022-12-31T18:08:24.516Z,10.77
2022-12-31T18:10:34.632Z,10.48
2022-12-31T18:12:43.587Z,10.18
2022-12-31T18:14:51.467Z,12.20
2022-12-31T18:16:59.342Z,13.27
2022-12-31T18:19:45.740Z,14.05
2022-12-31T18:21:46.437Z,12.77
2022-12-31T18:26:03.666Z,11.85
2022-12-31T18:28:12.371Z,16.73
2022-12-31T18:30:20.754Z,11.50
2022-12-31T18:32:31.989Z,10.30
2022-12-31T18:34:42.949Z,16.48
2022-12-31T18:36:50.772Z,13.40
2022-12-31T18:38:58.976Z,12.98
2022-12-31T18:41:07.282Z,11.65
2022-12-31T18:43:18.980Z,16.65
2022-12-31T18:45:26.907Z,14.65
2022-12-31T18:47:37.751Z,16.30
2022-12-31T18:49:48.833Z,14.77
2022-12-31T18:51:57.240Z,12.65
2022-12-31T18:54:05.802Z,11.80
2022-12-31T18:56:15.716Z,10.18
2022-12-31T18:58:23.593Z,9.68
2022-12-31T19:00:31.368Z,8.90
2022-12-31T19:02:39.241Z,8.18
2022-12-31T19:04:49.876Z,7.90
2022-12-31T19:06:58.604Z,8.10
2022-12-31T19:09:23.684Z,9.30
2022-12-31T19:11:35.905Z,9.02
2022-12-31T19:13:43.922Z,10.18
2022-12-31T19:15:54.120Z,13.35
2022-12-31T19:18:02.414Z,12.23
2022-12-31T19:20:13.861Z,13.02
2022-12-31T19:22:21.678Z,13.38
2022-12-31T19:24:30.518Z,10.38
2022-12-31T19:26:43.281Z,10.15
2022-12-31T19:28:52.824Z,10.10
2022-12-31T19:31:00.637Z,9.65
2022-12-31T19:33:23.667Z,10.35
2022-12-31T19:35:37.453Z,13.13
2022-12-31T19:37:46.838Z,13.75
2022-12-31T19:39:54.680Z,25.10
2022-12-31T19:42:03.749Z,50.25
2022-12-31T19:44:17.545Z,51.65
2022-12-31T19:46:25.410Z,43.60
2022-12-31T19:48:33.332Z,53.83
2022-12-31T19:50:45.923Z,33.70
2022-12-31T19:52:55.843Z,28.67
2022-12-31T19:55:03.703Z,47.65
2022-12-31T19:57:11.544Z,21.65
2022-12-31T19:59:19.404Z,19.10
2022-12-31T20:01:27.920Z,23.75
2022-12-31T20:03:36.253Z,24.95
2022-12-31T20:05:48.014Z,30.42
2022-12-31T20:07:55.806Z,32.42
2022-12-31T20:10:04.074Z,29.25
2022-12-31T20:12:11.808Z,39.53
2022-12-31T20:14:19.649Z,35.63
2022-12-31T20:16:29.969Z,58.03
2022-12-31T20:18:39.675Z,49.65
2022-12-31T20:20:55.837Z,71.53
2022-12-31T20:23:03.945Z,47.10
2022-12-31T20:25:12.364Z,25.65
2022-12-31T20:27:20.196Z,23.95
2022-12-31T20:29:27.982Z,14.75
2022-12-31T20:31:35.856Z,39.47
2022-12-31T20:33:44.494Z,34.83
2022-12-31T20:35:54.861Z,24.38
2022-12-31T20:38:02.655Z,36.90
2022-12-31T20:40:12.262Z,26.40
2022-12-31T20:42:20.094Z,23.50
2022-12-31T20:44:27.928Z,18.52
2022-12-31T20:46:36.054Z,16.73
2022-12-31T20:48:44.295Z,18.98
2022-12-31T20:51:00.253Z,15.77
2022-12-31T20:53:07.986Z,19.77
2022-12-31T20:55:18.179Z,17.83
2022-12-31T20:57:30.160Z,50.92
2022-12-31T20:59:41.170Z,101.57
2022-12-31T21:02:20.014Z,65.40
2022-12-31T21:04:17.119Z,107.82
2022-12-31T21:06:28.271Z,80.95
2022-12-31T21:08:37.307Z,62.05
2022-12-31T21:10:45.363Z,55.13
2022-12-31T21:12:53.627Z,38.85
2022-12-31T21:15:02.544Z,25.20
2022-12-31T21:17:10.273Z,24.13
2022-12-31T21:19:18.014Z,34.63
2022-12-31T21:21:28.484Z,41.80
2022-12-31T21:23:36.241Z,57.35
2022-12-31T21:25:46.427Z,57.08
2022-12-31T21:27:54.183Z,54.22
2022-12-31T21:30:18.109Z,43.45
2022-12-31T21:32:27.798Z,94.47
2022-12-31T21:34:35.916Z,92.30
2022-12-31T21:36:48.983Z,88.25
2022-12-31T21:38:56.915Z,65.35
2022-12-31T21:41:05.178Z,63.47
2022-12-31T21:43:12.979Z,62.42
2022-12-31T21:45:20.814Z,83.75
2022-12-31T21:47:47.510Z,90.28
2022-12-31T21:49:56.288Z,153.73
2022-12-31T21:52:19.472Z,193.25
2022-12-31T21:54:39.756Z,84.30
2022-12-31T21:56:47.509Z,47.28
2022-12-31T21:59:09.815Z,35.78
2022-12-31T22:01:35.081Z,34.67
2022-12-31T22:03:43.047Z,28.92
2022-12-31T22:05:53.833Z,24.95
2022-12-31T22:08:04.257Z,24.20
2022-12-31T22:10:12.589Z,24.45
2022-12-31T22:12:20.433Z,23.52
2022-12-31T22:14:28.388Z,31.02
2022-12-31T22:16:36.337Z,38.70
2022-12-31T22:18:45.488Z,38.20
2022-12-31T22:21:02.742Z,48.15
2022-12-31T22:23:13.307Z,44.33
2022-12-31T22:25:21.314Z,49.75
2022-12-31T22:27:30.123Z,41.85
2022-12-31T22:29:37.983Z,40.50
2022-12-31T22:31:45.889Z,35.47
2022-12-31T22:33:53.824Z,40.78
2022-12-31T22:36:07.162Z,42.95
2022-12-31T22:38:17.614Z,57.05
2022-12-31T22:40:25.367Z,68.82
2022-12-31T22:42:33.230Z,66.55
2022-12-31T22:44:41.088Z,52.05
2022-12-31T22:46:49.367Z,43.85
2022-12-31T22:49:00.361Z,42.05
2022-12-31T22:51:08.948Z,45.80
2022-12-31T22:53:19.367Z,50.33
2022-12-31T22:55:27.183Z,316.92
2022-12-31T22:57:35.065Z,132.75
2022-12-31T22:59:42.911Z,143.70
2022-12-31T23:01:50.756Z,130.90
2022-12-31T23:03:58.893Z,221.13
2022-12-31T23:06:06.983Z,244.75
2022-12-31T23:08:22.231Z,371.00
2022-12-31T23:10:46.215Z,593.83
2022-12-31T23:12:54.089Z,658.85
2022-12-31T23:15:14.351Z,502.05
2022-12-31T23:17:37.123Z,570.33
2022-12-31T23:19:57.349Z,509.58
2022-12-31T23:22:17.585Z,474.40
2022-12-31T23:24:26.689Z,345.60
2022-12-31T23:26:37.270Z,273.83
2022-12-31T23:28:45.114Z,203.10
2022-12-31T23:30:53.770Z,188.52
2022-12-31T23:33:01.675Z,149.93
2022-12-31T23:35:10.494Z,142.88
2022-12-31T23:37:18.913Z,127.25
2022-12-31T23:39:26.769Z,107.57
2022-12-31T23:41:37.587Z,107.90
2022-12-31T23:43:45.528Z,107.60
2022-12-31T23:45:53.885Z,114.35
2022-12-31T23:48:02.109Z,122.53
2022-12-31T23:50:11.313Z,100.78
2022-12-31T23:52:19.057Z,99.45
2022-12-31T23:54:26.903Z,95.43
2022-12-31T23:56:37.463Z,91.90
2022-12-31T23:58:45.479Z,87.07
